createdAt,value
2019-05-03T00:01:26.465Z,78.21
2019-05-03T00:03:33.128Z,77.88
2019-05-03T00:05:41.796Z,78.22
2019-05-03T00:07:49.174Z,78.26
2019-05-03T00:09:55.618Z,78.25
2019-05-03T00:12:03.413Z,78.11
2019-05-03T00:14:12.450Z,78.12
2019-05-03T00:16:26.160Z,78.64
2019-05-03T00:18:33.039Z,78.30
2019-05-03T00:20:39.613Z,78.25
2019-05-03T00:22:45.869Z,78.52
2019-05-03T00:25:03.157Z,78.78
2019-05-03T00:27:02.093Z,78.92
2019-05-03T00:29:10.201Z,79.13
2019-05-03T00:31:17.546Z,79.49
2019-05-03T00:33:23.943Z,79.71
2019-05-03T00:35:32.539Z,79.65
2019-05-03T00:37:43.810Z,79.56
2019-05-03T00:39:52.394Z,79.70
2019-05-03T00:41:58.978Z,79.76
2019-05-03T00:44:05.373Z,79.33
2019-05-03T00:46:12.654Z,79.42
2019-05-03T00:48:18.989Z,79.50
2019-05-03T00:50:25.461Z,79.59
2019-05-03T00:52:32.232Z,79.84
2019-05-03T00:54:38.594Z,79.54
2019-05-03T00:56:44.997Z,78.89
2019-05-03T00:58:53.118Z,78.13
2019-05-03T01:00:59.520Z,78.20
2019-05-03T01:03:05.981Z,77.95
2019-05-03T01:05:12.469Z,77.93
2019-05-03T01:07:22.297Z,77.67
2019-05-03T01:09:29.091Z,77.73
2019-05-03T01:11:35.336Z,77.37
2019-05-03T01:13:44.666Z,76.87
2019-05-03T01:16:02.792Z,77.38
2019-05-03T01:18:12.298Z,77.09
2019-05-03T01:20:19.229Z,77.21
2019-05-03T01:22:25.490Z,77.31
2019-05-03T01:24:32.396Z,76.96
2019-05-03T01:26:38.729Z,77.32
2019-05-03T01:28:44.971Z,76.90
2019-05-03T01:30:51.913Z,77.49
2019-05-03T01:32:58.452Z,77.43
2019-05-03T01:35:08.355Z,77.41
2019-05-03T01:37:14.722Z,77.74
2019-05-03T01:39:22.217Z,77.40
2019-05-03T01:41:28.676Z,77.73
2019-05-03T01:43:35.949Z,77.27
2019-05-03T01:45:43.295Z,77.16
2019-05-03T01:47:53.937Z,77.21
2019-05-03T01:50:12.185Z,77.09
2019-05-03T01:52:23.529Z,76.95
2019-05-03T01:54:32.012Z,77.23
2019-05-03T01:56:38.531Z,76.93
2019-05-03T01:58:45.811Z,76.65
2019-05-03T02:01:12.676Z,76.61
2019-05-03T02:03:28.138Z,76.65
2019-05-03T02:05:39.295Z,76.58
2019-05-03T02:07:48.375Z,76.59
2019-05-03T02:09:54.087Z,76.58
2019-05-03T02:12:02.125Z,76.53
2019-05-03T02:14:08.947Z,76.82
2019-05-03T02:16:15.209Z,76.70
2019-05-03T02:18:22.311Z,76.94
2019-05-03T02:20:32.278Z,76.80
2019-05-03T02:22:38.382Z,77.08
2019-05-03T02:24:44.646Z,76.34
2019-05-03T02:26:52.823Z,76.41
2019-05-03T02:28:59.132Z,76.59
2019-05-03T02:31:05.405Z,76.58
2019-05-03T02:33:13.433Z,76.54
2019-05-03T02:35:19.643Z,76.42
2019-05-03T02:37:25.881Z,76.38
2019-05-03T02:39:33.407Z,76.04
2019-05-03T02:41:40.264Z,75.66
2019-05-03T02:43:48.172Z,75.66
2019-05-03T02:45:58.933Z,75.35
2019-05-03T02:48:08.678Z,75.29
2019-05-03T02:50:17.202Z,75.16
2019-05-03T02:52:36.970Z,74.56
2019-05-03T02:54:46.455Z,74.73
2019-05-03T02:56:51.828Z,74.47
2019-05-03T02:58:58.085Z,74.18
2019-05-03T03:01:06.903Z,74.44
2019-05-03T03:03:16.458Z,74.38
2019-05-03T03:05:25.194Z,74.30
2019-05-03T03:07:32.480Z,74.47
2019-05-03T03:09:39.609Z,73.84
2019-05-03T03:11:49.567Z,73.25
2019-05-03T03:14:00.054Z,73.30
2019-05-03T03:16:11.415Z,72.77
2019-05-03T03:18:21.171Z,72.59
2019-05-03T03:20:28.939Z,72.59
2019-05-03T03:22:36.862Z,72.30
2019-05-03T03:24:46.383Z,72.23
2019-05-03T03:26:56.728Z,71.88
2019-05-03T03:29:07.628Z,71.19
2019-05-03T03:31:37.481Z,71.29
2019-05-03T03:33:41.046Z,71.49
2019-05-03T03:35:49.160Z,70.90
2019-05-03T03:37:56.121Z,71.08
2019-05-03T03:40:02.383Z,70.94
2019-05-03T03:42:10.701Z,70.62
2019-05-03T03:44:21.033Z,70.52
2019-05-03T03:46:32.143Z,70.49
2019-05-03T03:48:42.477Z,70.67
2019-05-03T03:50:51.483Z,70.40
2019-05-03T03:53:01.381Z,70.55
2019-05-03T03:55:07.601Z,70.21
2019-05-03T03:57:16.844Z,69.91
2019-05-03T03:59:26.950Z,69.61
2019-05-03T04:01:35.022Z,69.61
2019-05-03T04:03:42.024Z,69.32
2019-05-03T04:05:48.932Z,69.31
2019-05-03T04:07:56.537Z,68.87
2019-05-03T04:10:05.582Z,66.95
2019-05-03T04:12:12.199Z,63.11
2019-05-03T04:14:25.422Z,59.15
2019-05-03T04:16:45.499Z,57.18
2019-05-03T04:18:56.105Z,56.31
2019-05-03T04:21:06.791Z,54.56
2019-05-03T04:23:16.214Z,51.55
2019-05-03T04:25:26.116Z,51.50
2019-05-03T04:27:36.548Z,54.22
2019-05-03T04:29:45.912Z,52.70
2019-05-03T04:31:52.318Z,50.68
2019-05-03T04:33:59.461Z,50.25
2019-05-03T04:36:08.138Z,53.41
2019-05-03T04:38:16.224Z,51.86
2019-05-03T04:40:22.592Z,53.66
2019-05-03T04:42:29.731Z,54.23
2019-05-03T04:44:36.350Z,55.16
2019-05-03T04:46:46.265Z,56.63
2019-05-03T04:48:52.340Z,56.66
2019-05-03T04:50:59.277Z,57.23
2019-05-03T04:53:06.157Z,58.09
2019-05-03T04:55:15.715Z,58.37
2019-05-03T04:57:39.267Z,60.89
2019-05-03T04:59:29.816Z,59.39
2019-05-03T05:01:38.477Z,60.06
2019-05-03T05:03:45.739Z,61.07
2019-05-03T05:05:52.444Z,60.61
2019-05-03T05:07:59.312Z,60.60
2019-05-03T05:10:08.226Z,60.12
2019-05-03T05:12:18.667Z,60.28
2019-05-03T05:14:25.818Z,59.49
2019-05-03T05:16:35.420Z,59.59
2019-05-03T05:18:45.790Z,60.15
2019-05-03T05:20:55.463Z,58.91
2019-05-03T05:23:04.597Z,60.14
2019-05-03T05:25:15.363Z,59.60
2019-05-03T05:27:34.480Z,59.97
2019-05-03T05:29:41.326Z,60.11
2019-05-03T05:31:47.576Z,60.23
2019-05-03T05:33:54.956Z,60.26
2019-05-03T05:36:01.326Z,60.85
2019-05-03T05:38:08.196Z,60.66
2019-05-03T05:40:16.716Z,60.24
2019-05-03T05:42:24.953Z,60.07
2019-05-03T05:44:32.853Z,59.69
2019-05-03T05:46:41.007Z,59.16
2019-05-03T05:48:51.789Z,59.42
2019-05-03T05:50:58.057Z,58.34
2019-05-03T05:53:05.011Z,57.87
2019-05-03T05:55:28.395Z,56.64
2019-05-03T05:57:34.697Z,56.83
2019-05-03T05:59:46.133Z,56.45
2019-05-03T06:01:56.693Z,56.69
2019-05-03T06:04:02.956Z,55.57
2019-05-03T06:06:10.954Z,55.67
2019-05-03T06:08:21.738Z,55.15
2019-05-03T06:10:27.799Z,56.50
2019-05-03T06:12:45.487Z,55.10
2019-05-03T06:14:54.439Z,55.84
2019-05-03T06:17:11.646Z,56.09
2019-05-03T06:19:34.641Z,55.95
2019-05-03T06:21:54.885Z,55.90
2019-05-03T06:24:04.467Z,56.31
2019-05-03T06:26:28.405Z,57.12
2019-05-03T06:28:36.411Z,57.26
2019-05-03T06:30:47.171Z,56.89
2019-05-03T06:32:55.133Z,57.31
2019-05-03T06:35:01.527Z,57.00
2019-05-03T06:37:30.292Z,56.77
2019-05-03T06:39:37.496Z,57.47
2019-05-03T06:41:44.542Z,56.69
2019-05-03T06:43:55.174Z,55.94
2019-05-03T06:46:01.635Z,55.28
2019-05-03T06:48:08.071Z,55.12
2019-05-03T06:50:14.733Z,54.84
2019-05-03T06:52:25.523Z,54.87
2019-05-03T06:54:31.147Z,55.02
2019-05-03T06:56:41.223Z,55.20
2019-05-03T06:58:46.415Z,55.61
2019-05-03T07:01:00.406Z,54.59
2019-05-03T07:03:26.425Z,54.37
2019-05-03T07:05:35.505Z,55.03
2019-05-03T07:07:44.450Z,55.32
2019-05-03T07:09:59.415Z,54.18
2019-05-03T07:12:05.987Z,53.78
2019-05-03T07:14:12.354Z,54.16
2019-05-03T07:16:20.013Z,53.62
2019-05-03T07:18:26.272Z,53.28
2019-05-03T07:20:35.327Z,52.48
2019-05-03T07:22:41.809Z,51.99
2019-05-03T07:24:48.450Z,51.81
2019-05-03T07:26:55.145Z,51.74
2019-05-03T07:29:01.518Z,51.16
2019-05-03T07:31:07.961Z,51.30
2019-05-03T07:33:27.627Z,49.97
2019-05-03T07:35:35.324Z,49.92
2019-05-03T07:37:41.797Z,49.46
2019-05-03T07:39:48.057Z,49.07
2019-05-03T07:41:55.115Z,48.61
2019-05-03T07:44:01.699Z,49.24
2019-05-03T07:46:08.159Z,49.54
2019-05-03T07:48:15.020Z,50.64
2019-05-03T07:50:21.801Z,51.49
2019-05-03T07:52:28.269Z,50.73
2019-05-03T07:54:34.964Z,50.43
2019-05-03T07:56:44.622Z,48.73
2019-05-03T07:58:59.969Z,48.01
2019-05-03T08:01:07.132Z,47.05
2019-05-03T08:03:11.685Z,46.79
2019-05-03T08:05:18.013Z,46.34
2019-05-03T08:07:25.794Z,48.07
2019-05-03T08:09:35.196Z,48.97
2019-05-03T08:11:41.816Z,50.20
2019-05-03T08:13:48.151Z,50.75
2019-05-03T08:15:55.796Z,51.97
2019-05-03T08:18:04.755Z,52.29
2019-05-03T08:20:10.970Z,51.95
2019-05-03T08:22:17.335Z,52.39
2019-05-03T08:24:25.338Z,52.51
2019-05-03T08:26:34.856Z,52.67
2019-05-03T08:28:40.505Z,53.16
2019-05-03T08:31:04.827Z,54.05
2019-05-03T08:33:19.924Z,54.52
2019-05-03T08:35:27.902Z,55.19
2019-05-03T08:37:42.729Z,55.94
2019-05-03T08:39:48.968Z,56.37
2019-05-03T08:42:00.360Z,56.44
2019-05-03T08:44:06.930Z,55.93
2019-05-03T08:46:14.866Z,56.20
2019-05-03T08:48:21.613Z,56.28
2019-05-03T08:50:27.963Z,56.25
2019-05-03T08:52:34.823Z,56.54
2019-05-03T08:54:41.368Z,56.35
2019-05-03T08:56:47.646Z,55.64
2019-05-03T08:58:55.437Z,55.05
2019-05-03T09:01:01.968Z,53.68
2019-05-03T09:03:08.301Z,52.87
2019-05-03T09:05:18.536Z,52.59
2019-05-03T09:07:26.763Z,52.95
2019-05-03T09:09:35.013Z,52.34
2019-05-03T09:11:45.272Z,52.74
2019-05-03T09:13:58.584Z,52.17
2019-05-03T09:16:05.566Z,51.80
2019-05-03T09:18:16.013Z,50.48
2019-05-03T09:20:21.521Z,50.34
2019-05-03T09:22:30.537Z,49.08
2019-05-03T09:24:36.820Z,48.03
2019-05-03T09:26:44.839Z,47.66
2019-05-03T09:28:51.060Z,49.62
2019-05-03T09:30:57.823Z,51.99
2019-05-03T09:33:08.904Z,56.79
2019-05-03T09:35:28.954Z,61.74
2019-05-03T09:37:25.041Z,65.58
2019-05-03T09:39:31.585Z,62.78
2019-05-03T09:41:38.152Z,61.92
2019-05-03T09:43:45.083Z,59.94
2019-05-03T09:45:51.794Z,59.52
2019-05-03T09:47:58.173Z,60.45
2019-05-03T09:50:08.728Z,57.72
2019-05-03T09:52:16.198Z,55.57
2019-05-03T09:54:25.502Z,54.61
2019-05-03T09:56:55.882Z,55.50
2019-05-03T09:58:57.898Z,53.28
2019-05-03T10:01:06.238Z,50.36
2019-05-03T10:03:14.343Z,51.78
2019-05-03T10:05:22.557Z,52.02
2019-05-03T10:07:30.637Z,52.82
2019-05-03T10:11:55.274Z,52.34
2019-05-03T10:14:04.693Z,51.17
2019-05-03T10:16:10.488Z,52.13
2019-05-03T10:18:17.634Z,50.45
2019-05-03T10:20:27.996Z,49.83
2019-05-03T10:22:34.875Z,49.73
2019-05-03T10:24:45.336Z,49.44
2019-05-03T10:26:51.967Z,46.67
2019-05-03T10:28:58.380Z,46.53
2019-05-03T10:31:07.702Z,46.34
2019-05-03T10:33:15.624Z,45.79
2019-05-03T10:35:24.666Z,44.60
2019-05-03T10:37:32.690Z,44.32
2019-05-03T10:39:39.181Z,44.38
2019-05-03T10:41:47.357Z,43.75
2019-05-03T10:43:55.629Z,42.96
2019-05-03T10:46:04.886Z,42.89
2019-05-03T10:48:10.066Z,43.40
2019-05-03T10:50:16.816Z,41.75
2019-05-03T10:52:25.762Z,41.06
2019-05-03T10:54:32.756Z,40.71
2019-05-03T10:56:40.837Z,43.15
2019-05-03T10:58:56.192Z,44.82
2019-05-03T11:01:02.470Z,45.55
2019-05-03T11:03:10.436Z,46.23
2019-05-03T11:05:17.117Z,45.64
2019-05-03T11:07:25.642Z,45.02
2019-05-03T11:09:47.982Z,45.42
2019-05-03T11:11:45.177Z,44.09
2019-05-03T11:13:52.991Z,44.35
2019-05-03T11:15:59.399Z,44.74
2019-05-03T11:18:07.392Z,44.79
2019-05-03T11:20:18.225Z,43.85
2019-05-03T11:22:25.264Z,42.11
2019-05-03T11:24:34.660Z,41.83
2019-05-03T11:26:42.374Z,41.10
2019-05-03T11:28:48.738Z,40.32
2019-05-03T11:31:01.905Z,40.52
2019-05-03T11:33:08.802Z,38.86
2019-05-03T11:35:29.409Z,39.99
2019-05-03T11:37:37.722Z,41.69
2019-05-03T11:39:45.210Z,40.86
2019-05-03T11:41:53.210Z,39.77
2019-05-03T11:44:02.672Z,39.59
2019-05-03T11:46:11.973Z,40.77
2019-05-03T11:48:19.369Z,41.66
2019-05-03T11:50:25.787Z,42.35
2019-05-03T11:52:32.168Z,42.20
2019-05-03T11:54:39.592Z,42.18
2019-05-03T11:56:48.540Z,42.71
2019-05-03T11:58:57.644Z,42.91
2019-05-03T12:01:15.815Z,41.58
2019-05-03T12:03:27.458Z,42.00
2019-05-03T12:05:37.894Z,42.12
2019-05-03T12:07:45.505Z,41.75
2019-05-03T12:09:54.574Z,40.55
2019-05-03T12:12:00.660Z,39.23
2019-05-03T12:14:11.646Z,38.31
2019-05-03T12:16:25.915Z,36.94
2019-05-03T12:18:26.891Z,37.12
2019-05-03T12:20:36.614Z,38.06
2019-05-03T12:22:42.724Z,39.06
2019-05-03T12:24:49.900Z,39.85
2019-05-03T12:26:58.743Z,37.61
2019-05-03T12:29:05.265Z,36.41
2019-05-03T12:31:25.793Z,37.10
2019-05-03T12:33:20.378Z,36.67
2019-05-03T12:35:26.744Z,36.56
2019-05-03T12:37:35.174Z,36.04
2019-05-03T12:39:41.006Z,36.06
2019-05-03T12:41:48.251Z,36.77
2019-05-03T12:43:55.256Z,37.48
2019-05-03T12:46:01.761Z,36.81
2019-05-03T12:48:08.091Z,35.93
2019-05-03T12:50:15.763Z,36.67
2019-05-03T12:52:23.092Z,37.08
2019-05-03T12:54:30.556Z,37.01
2019-05-03T12:56:38.417Z,41.72
2019-05-03T12:58:49.338Z,45.20
2019-05-03T13:00:58.140Z,46.64
2019-05-03T13:03:15.325Z,48.51
2019-05-03T13:05:22.053Z,49.60
2019-05-03T13:07:46.221Z,49.75
2019-05-03T13:09:54.511Z,50.28
2019-05-03T13:12:00.677Z,51.29
2019-05-03T13:14:07.351Z,52.74
2019-05-03T13:16:15.366Z,54.35
2019-05-03T13:18:22.042Z,55.28
2019-05-03T13:20:28.505Z,55.16
2019-05-03T13:22:36.025Z,55.24
2019-05-03T13:24:45.232Z,54.70
2019-05-03T13:26:51.679Z,53.75
2019-05-03T13:28:59.666Z,52.93
2019-05-03T13:31:06.974Z,52.78
2019-05-03T13:33:15.148Z,51.62
2019-05-03T13:35:21.227Z,51.01
2019-05-03T13:37:27.728Z,50.99
2019-05-03T13:39:35.932Z,48.84
2019-05-03T13:41:42.278Z,47.83
2019-05-03T13:43:48.724Z,47.96
2019-05-03T13:45:55.690Z,47.86
2019-05-03T13:48:04.800Z,47.76
2019-05-03T13:50:11.141Z,47.69
2019-05-03T13:52:17.443Z,47.93
2019-05-03T13:54:25.482Z,48.11
2019-05-03T13:56:31.613Z,47.88
2019-05-03T13:58:38.374Z,47.42
2019-05-03T14:00:45.304Z,47.52
2019-05-03T14:02:51.804Z,47.52
2019-05-03T14:04:58.391Z,46.36
2019-05-03T14:07:04.974Z,46.36
2019-05-03T14:09:12.428Z,45.74
2019-05-03T14:11:18.806Z,45.61
2019-05-03T14:13:25.686Z,46.32
2019-05-03T14:15:35.536Z,47.81
2019-05-03T14:17:41.896Z,50.29
2019-05-03T14:19:48.639Z,50.70
2019-05-03T14:21:57.156Z,51.63
2019-05-03T14:24:08.216Z,52.81
2019-05-03T14:26:15.126Z,52.35
2019-05-03T14:28:21.758Z,52.40
2019-05-03T14:30:29.912Z,52.46
2019-05-03T14:32:36.136Z,52.71
2019-05-03T14:34:45.417Z,51.58
2019-05-03T14:36:52.236Z,49.72
2019-05-03T14:38:58.588Z,48.99
2019-05-03T14:41:05.495Z,49.31
2019-05-03T14:43:11.845Z,50.36
2019-05-03T14:45:18.507Z,50.59
2019-05-03T14:47:25.263Z,50.94
2019-05-03T14:49:31.715Z,50.55
2019-05-03T14:51:37.983Z,51.10
2019-05-03T14:53:45.311Z,50.66
2019-05-03T14:55:53.705Z,50.14
2019-05-03T14:58:14.775Z,48.33
2019-05-03T15:00:25.144Z,48.47
2019-05-03T15:02:47.640Z,48.60
2019-05-03T15:04:50.079Z,49.32
2019-05-03T15:06:57.982Z,49.18
2019-05-03T15:09:06.172Z,46.80
2019-05-03T15:11:14.781Z,47.17
2019-05-03T15:13:25.134Z,47.12
2019-05-03T15:15:31.591Z,47.26
2019-05-03T15:17:37.982Z,46.97
2019-05-03T15:19:46.155Z,46.99
2019-05-03T15:21:54.625Z,44.96
2019-05-03T15:24:00.648Z,44.72
2019-05-03T15:26:07.001Z,43.03
2019-05-03T15:28:13.502Z,42.27
2019-05-03T15:30:20.443Z,42.82
2019-05-03T15:32:26.804Z,43.11
2019-05-03T15:34:34.755Z,42.10
2019-05-03T15:36:42.112Z,42.51
2019-05-03T15:38:48.740Z,42.01
2019-05-03T15:40:55.324Z,41.71
2019-05-03T15:43:05.618Z,41.61
2019-05-03T15:45:30.048Z,42.72
2019-05-03T15:47:44.140Z,41.81
2019-05-03T15:49:50.481Z,42.42
2019-05-03T15:51:57.170Z,42.17
2019-05-03T15:54:04.842Z,41.74
2019-05-03T15:56:14.687Z,42.29
2019-05-03T15:58:23.013Z,42.02
2019-05-03T16:00:30.585Z,41.44
2019-05-03T16:02:36.955Z,41.47
2019-05-03T16:04:44.857Z,41.50
2019-05-03T16:06:51.297Z,42.17
2019-05-03T16:08:57.676Z,42.62
2019-05-03T16:11:05.586Z,42.94
2019-05-03T16:13:15.227Z,44.02
2019-05-03T16:15:21.593Z,44.46
2019-05-03T16:17:29.355Z,44.76
2019-05-03T16:19:35.736Z,45.00
2019-05-03T16:21:45.305Z,44.94
2019-05-03T16:23:51.318Z,45.24
2019-05-03T16:25:57.808Z,44.33
2019-05-03T16:28:21.559Z,44.53
2019-05-03T16:30:45.444Z,44.80
2019-05-03T16:32:51.914Z,44.83
2019-05-03T16:34:58.350Z,44.18
2019-05-03T16:37:04.735Z,44.53
2019-05-03T16:39:15.950Z,45.46
2019-05-03T16:41:22.409Z,54.22
2019-05-03T16:43:30.671Z,62.15
2019-05-03T16:45:37.051Z,67.46
2019-05-03T16:47:44.844Z,71.42
2019-05-03T16:49:51.411Z,73.85
2019-05-03T16:51:57.658Z,75.87
2019-05-03T16:54:05.553Z,77.79
2019-05-03T16:56:12.022Z,79.38
2019-05-03T16:58:18.390Z,80.09
2019-05-03T17:00:26.487Z,81.11
2019-05-03T17:02:34.955Z,82.10
2019-05-03T17:04:42.677Z,82.21
2019-05-03T17:06:55.309Z,81.22
2019-05-03T17:09:05.227Z,81.83
2019-05-03T17:11:14.821Z,82.12
2019-05-03T17:13:22.802Z,81.66
2019-05-03T17:15:29.971Z,82.38
2019-05-03T17:17:36.555Z,82.77
2019-05-03T17:19:44.705Z,83.31
2019-05-03T17:21:51.010Z,84.54
2019-05-03T17:23:58.915Z,85.90
2019-05-03T17:26:05.282Z,85.74
2019-05-03T17:28:11.726Z,85.13
2019-05-03T17:30:18.572Z,85.54
2019-05-03T17:32:24.876Z,84.10
2019-05-03T17:34:31.238Z,85.93
2019-05-03T17:36:37.582Z,86.12
2019-05-03T17:38:44.397Z,85.49
2019-05-03T17:40:56.476Z,85.65
2019-05-03T17:43:07.538Z,85.41
2019-05-03T17:45:15.651Z,86.07
2019-05-03T17:47:22.067Z,85.37
2019-05-03T17:49:28.687Z,86.89
2019-05-03T17:51:39.646Z,86.96
2019-05-03T17:53:56.638Z,86.33
2019-05-03T17:56:04.774Z,86.06
2019-05-03T17:58:15.082Z,87.15
2019-05-03T18:00:39.689Z,86.41
2019-05-03T18:02:48.742Z,85.83
2019-05-03T18:05:14.530Z,86.05
2019-05-03T18:07:38.895Z,86.70
2019-05-03T18:09:46.742Z,86.47
2019-05-03T18:11:54.639Z,86.67
2019-05-03T18:14:01.325Z,87.25
2019-05-03T18:16:07.675Z,87.54
2019-05-03T18:18:15.621Z,87.79
2019-05-03T18:20:22.150Z,87.96
2019-05-03T18:22:29.821Z,88.40
2019-05-03T18:24:36.808Z,88.29
2019-05-03T18:26:44.893Z,87.86
2019-05-03T18:28:51.369Z,87.96
2019-05-03T18:30:59.167Z,88.00
2019-05-03T18:33:06.254Z,88.09
2019-05-03T18:35:13.046Z,88.28
2019-05-03T18:37:19.707Z,88.05
2019-05-03T18:39:26.810Z,87.83
2019-05-03T18:41:34.850Z,88.07
2019-05-03T18:43:45.101Z,88.15
2019-05-03T18:45:54.428Z,87.76
2019-05-03T18:48:01.353Z,87.68
2019-05-03T18:50:09.267Z,87.41
2019-05-03T18:52:15.911Z,87.33
2019-05-03T18:54:24.463Z,87.15
2019-05-03T18:56:30.685Z,87.14
2019-05-03T18:58:37.563Z,87.34
2019-05-03T19:00:44.238Z,87.54
2019-05-03T19:02:51.217Z,87.18
2019-05-03T19:04:57.587Z,86.78
2019-05-03T19:07:07.181Z,86.01
2019-05-03T19:09:17.683Z,85.95
2019-05-03T19:11:25.914Z,86.06
2019-05-03T19:13:33.995Z,85.21
2019-05-03T19:15:41.371Z,85.22
2019-05-03T19:17:49.677Z,85.27
2019-05-03T19:19:58.089Z,85.48
2019-05-03T19:22:05.125Z,85.67
2019-05-03T19:24:15.223Z,85.98
2019-05-03T19:26:22.093Z,86.67
2019-05-03T19:28:28.845Z,85.73
2019-05-03T19:30:38.624Z,86.10
2019-05-03T19:32:48.721Z,86.02
2019-05-03T19:34:55.485Z,86.05
2019-05-03T19:37:02.105Z,86.04
2019-05-03T19:39:09.642Z,86.18
2019-05-03T19:41:17.799Z,86.27
2019-05-03T19:43:29.305Z,85.98
2019-05-03T19:45:35.643Z,85.73
2019-05-03T19:47:44.858Z,85.70
2019-05-03T19:49:54.699Z,85.92
2019-05-03T19:52:02.219Z,85.67
2019-05-03T19:54:08.563Z,85.37
2019-05-03T19:56:15.029Z,85.50
2019-05-03T19:58:24.805Z,85.25
2019-05-03T20:00:34.745Z,85.35
2019-05-03T20:02:51.619Z,85.52
2019-05-03T20:05:15.189Z,85.79
2019-05-03T20:07:27.756Z,86.00
2019-05-03T20:09:35.016Z,86.14
2019-05-03T20:11:41.920Z,86.32
2019-05-03T20:13:48.749Z,86.44
2019-05-03T20:15:55.526Z,86.49
2019-05-03T20:18:04.781Z,86.44
2019-05-03T20:20:10.912Z,86.54
2019-05-03T20:22:17.559Z,86.63
2019-05-03T20:24:25.383Z,86.67
2019-05-03T20:26:34.606Z,86.76
2019-05-03T20:28:40.229Z,86.87
2019-05-03T20:30:46.715Z,87.02
2019-05-03T20:32:55.451Z,87.01
2019-05-03T20:35:13.011Z,87.03
2019-05-03T20:37:10.534Z,87.10
2019-05-03T20:39:16.860Z,87.13
2019-05-03T20:41:25.474Z,87.20
2019-05-03T20:43:40.020Z,87.20
2019-05-03T20:46:01.420Z,87.31
2019-05-03T20:48:14.441Z,87.42
2019-05-03T20:50:20.399Z,87.60
2019-05-03T20:52:29.072Z,87.77
2019-05-03T20:54:35.905Z,87.87
2019-05-03T20:56:42.253Z,87.94
2019-05-03T20:58:49.340Z,88.03
2019-05-03T21:00:55.707Z,88.18
2019-05-03T21:03:05.025Z,88.35
2019-05-03T21:05:26.196Z,88.52
2019-05-03T21:07:20.037Z,88.64
2019-05-03T21:09:26.913Z,88.72
2019-05-03T21:11:33.270Z,88.77
2019-05-03T21:13:42.425Z,88.75
2019-05-03T21:16:02.770Z,88.70
2019-05-03T21:18:20.807Z,88.68
2019-05-03T21:20:35.857Z,88.63
2019-05-03T21:22:44.326Z,88.66
2019-05-03T21:24:52.269Z,88.74
2019-05-03T21:26:58.545Z,88.73
2019-05-03T21:29:06.460Z,88.78
2019-05-03T21:31:15.506Z,88.74
2019-05-03T21:33:21.722Z,88.63
2019-05-03T21:35:39.358Z,88.54
2019-05-03T21:37:36.000Z,88.44
2019-05-03T21:39:42.266Z,88.27
2019-05-03T21:41:48.720Z,88.23
2019-05-03T21:43:54.980Z,88.11
2019-05-03T21:46:06.979Z,87.94
2019-05-03T21:48:14.979Z,87.78
2019-05-03T21:50:22.179Z,87.51
2019-05-03T21:52:28.515Z,87.26
2019-05-03T21:54:34.875Z,87.09
2019-05-03T21:56:41.348Z,87.05
2019-05-03T21:58:48.227Z,86.80
2019-05-03T22:01:02.664Z,86.61
2019-05-03T22:03:14.601Z,86.41
2019-05-03T22:05:21.230Z,86.31
2019-05-03T22:07:28.813Z,86.30
2019-05-03T22:09:36.529Z,86.40
2019-05-03T22:11:44.689Z,86.48
2019-05-03T22:13:54.247Z,86.41
2019-05-03T22:16:02.140Z,86.43
2019-05-03T22:18:12.696Z,86.24
2019-05-03T22:20:26.776Z,86.08
2019-05-03T22:22:37.634Z,85.76
2019-05-03T22:24:46.567Z,85.53
2019-05-03T22:27:04.876Z,85.50
2019-05-03T22:29:11.861Z,85.36
2019-05-03T22:31:18.098Z,85.14
2019-05-03T22:33:24.675Z,85.00
2019-05-03T22:35:31.038Z,85.06
2019-05-03T22:37:37.422Z,85.12
2019-05-03T22:39:45.189Z,85.27
2019-05-03T22:41:52.085Z,85.00
2019-05-03T22:43:59.082Z,85.05
2019-05-03T22:46:06.873Z,84.96
2019-05-03T22:48:14.596Z,84.81
2019-05-03T22:50:22.248Z,84.88
2019-05-03T22:52:28.824Z,84.48
2019-05-03T22:54:37.034Z,84.18
2019-05-03T22:56:44.774Z,84.10
2019-05-03T22:58:51.403Z,83.99
2019-05-03T23:00:57.935Z,83.45
2019-05-03T23:03:04.432Z,83.17
2019-05-03T23:05:12.613Z,82.92
2019-05-03T23:07:20.530Z,82.36
2019-05-03T23:09:26.891Z,82.21
2019-05-03T23:11:35.204Z,82.38
2019-05-03T23:13:41.665Z,82.64
2019-05-03T23:15:48.883Z,82.95
2019-05-03T23:17:55.399Z,82.76
2019-05-03T23:20:04.626Z,82.47
2019-05-03T23:22:18.376Z,82.16
2019-05-03T23:24:26.074Z,82.29
2019-05-03T23:26:34.837Z,82.34
2019-05-03T23:28:41.556Z,82.40
2019-05-03T23:30:47.909Z,81.81
2019-05-03T23:32:54.778Z,81.68
2019-05-03T23:35:02.276Z,81.48
2019-05-03T23:37:08.635Z,81.58
2019-05-03T23:39:14.901Z,81.50
2019-05-03T23:41:21.177Z,81.20
2019-05-03T23:43:27.416Z,81.14
2019-05-03T23:45:34.771Z,81.18
2019-05-03T23:47:44.874Z,80.86
2019-05-03T23:49:50.910Z,80.94
2019-05-03T23:51:58.792Z,80.84
2019-05-03T23:54:05.706Z,80.57
2019-05-03T23:56:19.718Z,80.50
2019-05-03T23:58:26.012Z,80.70
